Time;durP1;ratioP1;P1;durP2;ratioP2;P2;SDS_P1;SDS_P2;PMS_P1;PMS_P2;Temp;Humidity;BMP_temperature;BMP_pressure;BME280_temperature;BME280_humidity;BME280_pressure;Samples;Min_cycle;Max_cycle;Signal;HPM_P1;HPM_P2
2022/11/04 00:02:43;;;;;;;3.13;2.10;;;;;;;;;;5001201;28;20041;-73
2022/11/04 00:05:28;;;;;;;1.70;1.35;;;;;;;;;;5001806;28;20030;-73
2022/11/04 00:08:23;;;;;;;2.70;1.80;;;;;;;;;;4993764;28;20080;-73
2022/11/04 00:14:13;;;;;;;1.60;1.17;;;;;;;;;;4996617;28;20075;-71
2022/11/04 00:29:14;;;;;;;2.05;1.27;;;;;;;;;;5008123;28;20406;-73
2022/11/04 00:35:13;;;;;;;2.70;1.30;;;;;;;;;;4995728;28;20045;-74
2022/11/04 00:38:05;;;;;;;1.38;1.27;;;;;;;;;;4970926;28;20053;-74
2022/11/04 00:40:51;;;;;;;1.38;1.17;;;;;;;;;;4982803;28;20066;-75
2022/11/04 00:43:37;;;;;;;1.45;1.10;;;;;;;;;;4995357;28;20018;-74
2022/11/04 00:46:25;;;;;;;1.30;1.02;;;;;;;;;;4985960;28;20022;-75
2022/11/04 00:49:13;;;;;;;1.80;1.00;;;;;;;;;;4990545;28;20167;-72
2022/11/04 00:51:58;;;;;;;1.25;1.13;;;;;;;;;;4994973;28;20057;-76
2022/11/04 00:54:44;;;;;;;1.83;1.15;;;;;;;;;;4996547;28;20128;-76
2022/11/04 00:57:29;;;;;;;1.60;1.10;;;;;;;;;;5016542;28;20022;-76
2022/11/04 01:00:15;;;;;;;3.35;1.13;;;;;;;;;;4986911;28;20033;-76
2022/11/04 01:03:01;;;;;;;1.70;1.20;;;;;;;;;;5009794;28;20388;-77
2022/11/04 01:05:47;;;;;;;2.80;1.10;;;;;;;;;;4980666;28;20041;-76
2022/11/04 01:08:33;;;;;;;1.67;0.90;;;;;;;;;;5010803;28;20355;-69
2022/11/04 01:11:18;;;;;;;1.67;1.00;;;;;;;;;;5001105;28;20036;-79
2022/11/04 01:14:03;;;;;;;2.25;1.27;;;;;;;;;;4997257;28;20022;-80
2022/11/04 01:16:49;;;;;;;1.40;0.88;;;;;;;;;;4995711;28;20484;-82
2022/11/04 01:19:34;;;;;;;3.55;1.10;;;;;;;;;;5010507;28;20022;-80
2022/11/04 01:22:19;;;;;;;1.98;1.08;;;;;;;;;;5000900;28;20029;-79
2022/11/04 01:25:05;;;;;;;1.92;1.08;;;;;;;;;;4993750;28;20081;-79
2022/11/04 01:27:50;;;;;;;1.20;0.90;;;;;;;;;;4999990;28;20120;-72
2022/11/04 01:30:39;;;;;;;2.13;1.35;;;;;;;;;;4985430;28;20034;-73
2022/11/04 01:33:24;;;;;;;3.78;1.20;;;;;;;;;;4966773;28;20161;-73
2022/11/04 01:36:12;;;;;;;2.05;1.42;;;;;;;;;;4952905;28;20038;-73
2022/11/04 01:38:57;;;;;;;1.77;1.10;;;;;;;;;;4933870;28;20158;-74
2022/11/04 01:41:43;;;;;;;3.58;1.00;;;;;;;;;;4940595;28;20054;-74
2022/11/04 01:44:40;;;;;;;1.75;1.20;;;;;;;;;;4956569;28;20030;-69
2022/11/04 01:47:31;;;;;;;2.13;1.13;;;;;;;;;;4966774;28;20398;-71
2022/11/04 01:50:19;;;;;;;2.20;0.88;;;;;;;;;;4968602;28;20042;-72
2022/11/04 01:53:06;;;;;;;2.17;1.30;;;;;;;;;;4969483;28;20034;-71
2022/11/04 01:55:53;;;;;;;2.70;1.17;;;;;;;;;;4953752;28;20041;-72
2022/11/04 01:58:42;;;;;;;1.08;0.90;;;;;;;;;;4957003;28;20035;-71
2022/11/04 02:01:27;;;;;;;11.05;1.15;;;;;;;;;;4966380;28;20048;-73
2022/11/04 02:04:24;;;;;;;4.80;1.75;;;;;;;;;;4958785;28;20491;-71
2022/11/04 02:07:10;;;;;;;4.35;1.30;;;;;;;;;;5002746;28;20490;-71
2022/11/04 02:09:56;;;;;;;2.25;1.33;;;;;;;;;;5002217;28;20026;-70
2022/11/04 02:12:50;;;;;;;4.65;1.17;;;;;;;;;;5011977;28;20084;-70
2022/11/04 02:15:49;;;;;;;1.77;1.15;;;;;;;;;;5009954;28;20030;-69
2022/11/04 02:18:34;;;;;;;3.63;1.83;;;;;;;;;;5013273;28;20536;-69
2022/11/04 02:21:32;;;;;;;1.13;1.02;;;;;;;;;;4999087;28;20509;-69
2022/11/04 02:24:37;;;;;;;1.65;1.08;;;;;;;;;;4971603;28;20069;-69
2022/11/04 02:27:25;;;;;;;1.15;0.90;;;;;;;;;;4969142;28;20046;-68
2022/11/04 02:30:17;;;;;;;1.30;0.93;;;;;;;;;;4970132;28;20704;-68
2022/11/04 02:33:10;;;;;;;1.23;0.98;;;;;;;;;;4978159;28;20410;-68
2022/11/04 02:35:55;;;;;;;2.45;0.85;;;;;;;;;;4966694;28;20062;-67
2022/11/04 02:38:50;;;;;;;1.23;0.90;;;;;;;;;;4977052;28;20499;-69
2022/11/04 02:41:38;;;;;;;1.15;1.05;;;;;;;;;;4959065;28;20078;-67
2022/11/04 02:44:29;;;;;;;2.42;1.10;;;;;;;;;;4958459;28;20042;-70
2022/11/04 02:47:18;;;;;;;2.67;0.80;;;;;;;;;;4970142;28;20027;-68
2022/11/04 02:50:35;;;;;;;1.13;0.90;;;;;;;;;;4956944;28;20052;-67
2022/11/04 02:53:28;;;;;;;1.88;0.80;;;;;;;;;;4937725;28;20034;-67
2022/11/04 02:56:15;;;;;;;2.33;0.95;;;;;;;;;;5011877;28;20037;-67
2022/11/04 02:59:03;;;;;;;1.38;0.90;;;;;;;;;;4985741;28;20040;-78
2022/11/04 03:01:51;;;;;;;1.83;1.00;;;;;;;;;;4983895;28;20033;-70
2022/11/04 03:04:39;;;;;;;1.25;0.95;;;;;;;;;;4999367;28;20025;-70
2022/11/04 03:07:30;;;;;;;2.33;1.00;;;;;;;;;;4981919;28;20119;-70
2022/11/04 03:10:21;;;;;;;1.00;0.90;;;;;;;;;;4998102;28;20033;-71
2022/11/04 03:13:14;;;;;;;2.42;1.50;;;;;;;;;;5007249;28;20062;-70
2022/11/04 03:16:02;;;;;;;2.08;1.00;;;;;;;;;;5001897;28;20445;-70
2022/11/04 03:18:53;;;;;;;2.78;0.95;;;;;;;;;;4996542;28;20069;-70
2022/11/04 03:21:41;;;;;;;2.35;1.08;;;;;;;;;;4997177;28;20030;-72
2022/11/04 03:24:27;;;;;;;2.35;1.05;;;;;;;;;;4994269;28;20392;-72
2022/11/04 03:27:31;;;;;;;0.95;0.70;;;;;;;;;;4998911;28;20026;-72
2022/11/04 03:30:21;;;;;;;1.85;0.93;;;;;;;;;;5010245;28;20129;-71
2022/11/04 03:33:25;;;;;;;1.45;0.77;;;;;;;;;;4995150;28;20033;-70
2022/11/04 03:36:10;;;;;;;1.35;0.80;;;;;;;;;;5001829;28;20043;-72
2022/11/04 03:38:55;;;;;;;2.17;0.70;;;;;;;;;;4985893;28;20469;-70
2022/11/04 03:41:48;;;;;;;1.55;1.10;;;;;;;;;;5015522;28;20025;-71
2022/11/04 03:44:33;;;;;;;1.10;0.90;;;;;;;;;;4990191;28;20083;-71
2022/11/04 03:47:20;;;;;;;5.20;1.83;;;;;;;;;;4990723;28;20037;-70
2022/11/04 03:50:10;;;;;;;0.70;0.70;;;;;;;;;;5003077;28;20384;-71
2022/11/04 03:52:57;;;;;;;1.45;0.63;;;;;;;;;;4996823;28;20033;-69
2022/11/04 03:55:47;;;;;;;2.60;0.93;;;;;;;;;;4998013;28;20034;-68
2022/11/04 03:58:42;;;;;;;1.63;0.70;;;;;;;;;;5001831;28;20026;-68
2022/11/04 04:01:46;;;;;;;2.08;1.67;;;;;;;;;;4991071;28;20189;-68
2022/11/04 04:04:34;;;;;;;4.97;1.27;;;;;;;;;;4979463;28;20030;-67
2022/11/04 04:07:37;;;;;;;1.65;1.02;;;;;;;;;;4993510;28;20030;-68
2022/11/04 04:10:39;;;;;;;1.55;0.73;;;;;;;;;;4994379;28;20093;-67
2022/11/04 04:13:35;;;;;;;1.48;0.98;;;;;;;;;;5014706;28;20022;-66
2022/11/04 04:16:26;;;;;;;2.65;0.95;;;;;;;;;;4994070;28;20034;-68
2022/11/04 04:19:19;;;;;;;1.73;0.80;;;;;;;;;;4991388;28;20427;-69
2022/11/04 04:22:08;;;;;;;2.15;0.90;;;;;;;;;;4991342;28;20120;-68
2022/11/04 04:27:59;;;;;;;2.17;1.10;;;;;;;;;;5015436;28;20037;-69
2022/11/04 04:30:45;;;;;;;1.13;0.90;;;;;;;;;;4996557;28;20167;-75
2022/11/04 04:33:30;;;;;;;1.10;0.98;;;;;;;;;;5002981;28;20492;-67
2022/11/04 04:36:15;;;;;;;1.10;0.75;;;;;;;;;;5017024;28;20104;-67
2022/11/04 04:45:19;;;;;;;2.30;0.90;;;;;;;;;;5004294;28;20037;-66
2022/11/04 04:48:10;;;;;;;2.50;1.08;;;;;;;;;;4988855;28;20029;-71
2022/11/04 04:50:56;;;;;;;1.23;0.90;;;;;;;;;;5008994;28;20075;-71
2022/11/04 04:53:41;;;;;;;1.65;0.80;;;;;;;;;;4992618;28;20026;-71
2022/11/04 04:56:27;;;;;;;1.55;0.88;;;;;;;;;;5013904;28;20030;-72
2022/11/04 04:59:12;;;;;;;2.13;0.90;;;;;;;;;;5021681;28;20714;-72
2022/11/04 05:01:57;;;;;;;3.67;1.15;;;;;;;;;;5006071;28;20511;-71
2022/11/04 05:04:42;;;;;;;2.55;1.05;;;;;;;;;;4990245;28;20030;-71
2022/11/04 05:07:28;;;;;;;1.40;0.80;;;;;;;;;;5007224;28;20026;-71
2022/11/04 05:10:14;;;;;;;2.58;0.90;;;;;;;;;;4997394;28;20025;-70
2022/11/04 05:16:12;;;;;;;2.03;0.80;;;;;;;;;;4984489;28;20034;-72
2022/11/04 05:18:57;;;;;;;3.47;1.15;;;;;;;;;;5008728;28;20124;-71
2022/11/04 05:21:43;;;;;;;5.40;2.08;;;;;;;;;;5012201;28;20064;-72
2022/11/04 05:24:28;;;;;;;7.07;1.08;;;;;;;;;;4993450;28;20084;-71
2022/11/04 05:27:13;;;;;;;4.20;1.10;;;;;;;;;;4996554;28;20025;-75
2022/11/04 05:29:58;;;;;;;2.95;1.33;;;;;;;;;;5008799;28;20060;-68
2022/11/04 05:32:44;;;;;;;2.95;1.10;;;;;;;;;;4988781;28;20119;-66
2022/11/04 05:35:29;;;;;;;3.60;1.25;;;;;;;;;;5012688;28;20022;-68
2022/11/04 05:38:14;;;;;;;3.35;0.90;;;;;;;;;;5000108;28;20026;-68
2022/11/04 05:40:59;;;;;;;0.90;0.90;;;;;;;;;;5003872;28;20042;-66
2022/11/04 05:43:45;;;;;;;1.98;0.90;;;;;;;;;;4992047;28;20504;-72
2022/11/04 05:46:30;;;;;;;4.40;1.00;;;;;;;;;;5002368;28;20033;-66
2022/11/04 05:49:15;;;;;;;5.05;1.25;;;;;;;;;;4983033;28;20037;-67
2022/11/04 05:52:00;;;;;;;8.57;1.00;;;;;;;;;;5002436;28;20037;-69
2022/11/04 05:54:46;;;;;;;4.07;0.95;;;;;;;;;;5012890;28;20043;-67
2022/11/04 05:57:31;;;;;;;1.42;0.98;;;;;;;;;;5014156;28;20041;-69
2022/11/04 06:00:16;;;;;;;2.50;1.10;;;;;;;;;;5027777;28;20084;-67
2022/11/04 06:03:02;;;;;;;1.95;1.30;;;;;;;;;;5015049;28;20048;-70
2022/11/04 06:05:47;;;;;;;3.80;0.93;;;;;;;;;;5005460;28;20029;-74
2022/11/04 06:08:32;;;;;;;3.95;1.50;;;;;;;;;;5015572;28;20018;-75
2022/11/04 06:11:18;;;;;;;3.35;1.02;;;;;;;;;;5008651;28;20087;-75
2022/11/04 06:14:04;;;;;;;2.70;1.63;;;;;;;;;;5005680;28;20033;-74
2022/11/04 06:16:49;;;;;;;3.70;1.20;;;;;;;;;;5010958;28;20507;-75
2022/11/04 06:19:34;;;;;;;1.77;0.95;;;;;;;;;;4996139;28;20117;-76
2022/11/04 06:22:19;;;;;;;2.85;1.13;;;;;;;;;;5003147;28;20065;-75
2022/11/04 06:25:05;;;;;;;2.72;1.33;;;;;;;;;;5003984;28;20022;-69
2022/11/04 06:27:50;;;;;;;4.18;1.02;;;;;;;;;;4998077;28;20087;-70
2022/11/04 06:30:35;;;;;;;2.85;1.27;;;;;;;;;;5009308;28;20029;-68
2022/11/04 06:33:21;;;;;;;2.03;0.95;;;;;;;;;;5012449;28;20069;-69
2022/11/04 06:36:07;;;;;;;4.47;1.15;;;;;;;;;;5010574;28;20025;-69
2022/11/04 06:38:52;;;;;;;6.28;1.23;;;;;;;;;;5007509;28;20037;-70
2022/11/04 06:41:37;;;;;;;3.05;1.50;;;;;;;;;;4994417;28;20064;-66
2022/11/04 06:44:23;;;;;;;3.65;1.30;;;;;;;;;;4996971;28;20018;-65
2022/11/04 06:47:08;;;;;;;2.00;1.15;;;;;;;;;;5009798;28;20026;-66
2022/11/04 06:49:54;;;;;;;2.63;1.17;;;;;;;;;;4992987;28;20026;-69
2022/11/04 06:52:39;;;;;;;2.30;0.93;;;;;;;;;;5005749;28;20038;-67
2022/11/04 06:55:25;;;;;;;2.28;1.25;;;;;;;;;;5009730;28;20036;-68
2022/11/04 06:58:10;;;;;;;6.10;2.28;;;;;;;;;;4984472;28;20033;-70
2022/11/04 07:00:55;;;;;;;3.45;1.30;;;;;;;;;;4990624;28;20041;-68
2022/11/04 07:03:40;;;;;;;3.35;1.10;;;;;;;;;;5011679;28;20026;-66
2022/11/04 07:06:27;;;;;;;2.83;1.70;;;;;;;;;;4983969;28;20080;-67
2022/11/04 07:09:14;;;;;;;1.45;1.02;;;;;;;;;;5002041;28;20029;-67
2022/11/04 07:11:59;;;;;;;2.88;1.20;;;;;;;;;;5003517;28;20038;-66
2022/11/04 07:14:44;;;;;;;3.60;1.60;;;;;;;;;;4995474;28;20037;-65
2022/11/04 07:17:29;;;;;;;3.55;1.83;;;;;;;;;;4996913;28;20599;-69
2022/11/04 07:20:15;;;;;;;4.65;2.00;;;;;;;;;;4999411;28;20628;-72
2022/11/04 07:23:00;;;;;;;3.40;1.42;;;;;;;;;;5002561;28;20073;-73
2022/11/04 07:25:45;;;;;;;7.13;1.98;;;;;;;;;;5011217;28;20021;-72
2022/11/04 07:28:31;;;;;;;3.05;1.67;;;;;;;;;;5003871;28;20397;-75
2022/11/04 07:31:16;;;;;;;2.88;1.55;;;;;;;;;;5012353;28;20029;-73
2022/11/04 07:34:02;;;;;;;4.20;1.75;;;;;;;;;;4997199;28;20112;-67
2022/11/04 07:36:47;;;;;;;4.80;1.60;;;;;;;;;;5009370;28;20030;-77
2022/11/04 07:39:32;;;;;;;2.65;1.40;;;;;;;;;;4985658;28;20033;-77
2022/11/04 07:42:18;;;;;;;4.05;1.27;;;;;;;;;;4997384;28;20119;-83
2022/11/04 07:45:03;;;;;;;3.08;1.17;;;;;;;;;;5009001;28;20037;-78
2022/11/04 07:47:48;;;;;;;4.40;1.40;;;;;;;;;;4996831;28;20030;-80
2022/11/04 07:50:36;;;;;;;1.92;1.30;;;;;;;;;;4999283;28;20068;-82
2022/11/04 07:53:21;;;;;;;4.25;1.92;;;;;;;;;;5011093;28;20036;-81
2022/11/04 07:56:10;;;;;;;4.18;2.00;;;;;;;;;;5003739;28;20026;-69
2022/11/04 07:58:55;;;;;;;7.57;2.05;;;;;;;;;;5010937;28;20041;-68
2022/11/04 08:01:40;;;;;;;4.40;2.25;;;;;;;;;;4995686;28;20029;-71
2022/11/04 08:04:26;;;;;;;3.92;2.25;;;;;;;;;;4994859;28;20476;-69
2022/11/04 08:07:11;;;;;;;6.18;1.90;;;;;;;;;;5011774;28;20500;-69
2022/11/04 08:09:56;;;;;;;3.65;1.80;;;;;;;;;;4993911;28;20113;-71
2022/11/04 08:12:42;;;;;;;4.35;1.45;;;;;;;;;;5013957;28;20022;-68
2022/11/04 08:15:28;;;;;;;3.45;1.77;;;;;;;;;;4981513;28;20030;-75
2022/11/04 08:18:13;;;;;;;5.85;1.88;;;;;;;;;;5010883;28;20172;-75
2022/11/04 08:20:58;;;;;;;4.05;1.77;;;;;;;;;;5000097;28;20076;-76
2022/11/04 08:23:46;;;;;;;4.18;1.90;;;;;;;;;;4995840;28;20053;-75
2022/11/04 08:26:31;;;;;;;6.53;1.60;;;;;;;;;;5008283;28;20095;-74
2022/11/04 08:29:17;;;;;;;3.20;1.48;;;;;;;;;;5012503;28;20042;-74
2022/11/04 08:32:02;;;;;;;4.38;1.73;;;;;;;;;;4997546;28;20033;-68
2022/11/04 08:34:47;;;;;;;6.75;1.80;;;;;;;;;;4996473;28;20034;-69
2022/11/04 08:37:33;;;;;;;3.47;1.70;;;;;;;;;;5000440;28;20021;-67
2022/11/04 08:40:18;;;;;;;8.07;2.22;;;;;;;;;;5006532;28;20389;-69
2022/11/04 08:43:03;;;;;;;8.55;2.33;;;;;;;;;;4990845;28;20018;-68
2022/11/04 08:45:48;;;;;;;17.30;2.53;;;;;;;;;;5011654;28;20448;-70
2022/11/04 08:48:35;;;;;;;3.28;2.03;;;;;;;;;;4992371;28;20021;-74
2022/11/04 08:51:22;;;;;;;4.65;2.00;;;;;;;;;;4996028;28;20033;-77
2022/11/04 08:54:07;;;;;;;2.70;1.40;;;;;;;;;;5015867;28;20033;-73
2022/11/04 08:56:53;;;;;;;3.65;2.00;;;;;;;;;;5011357;28;20113;-75
2022/11/04 08:59:38;;;;;;;4.55;1.48;;;;;;;;;;4990474;28;20109;-76
2022/11/04 09:02:23;;;;;;;5.10;1.77;;;;;;;;;;4997208;28;20026;-76
2022/11/04 09:05:09;;;;;;;4.13;1.30;;;;;;;;;;4998362;28;20037;-75
2022/11/04 09:07:54;;;;;;;2.60;1.17;;;;;;;;;;4999470;28;20033;-69
2022/11/04 09:10:43;;;;;;;2.50;1.30;;;;;;;;;;4996159;28;20292;-83
2022/11/04 09:13:28;;;;;;;4.00;1.20;;;;;;;;;;4995350;28;20033;-79
2022/11/04 09:16:14;;;;;;;4.80;1.70;;;;;;;;;;4996250;28;20037;-82
2022/11/04 09:19:00;;;;;;;4.22;1.83;;;;;;;;;;4996207;28;20077;-83
2022/11/04 09:21:46;;;;;;;4.45;1.80;;;;;;;;;;5008162;28;20144;-79
2022/11/04 09:24:31;;;;;;;2.50;1.35;;;;;;;;;;5008574;28;20497;-76
2022/11/04 09:27:16;;;;;;;5.88;1.40;;;;;;;;;;4995436;28;20059;-74
2022/11/04 09:30:02;;;;;;;2.33;1.30;;;;;;;;;;4990565;28;20057;-74
2022/11/04 09:32:47;;;;;;;2.45;1.30;;;;;;;;;;5007675;28;20033;-77
2022/11/04 09:35:32;;;;;;;4.80;1.27;;;;;;;;;;4995399;28;20060;-73
2022/11/04 09:38:17;;;;;;;2.75;1.15;;;;;;;;;;5008162;28;20366;-76
2022/11/04 09:41:21;;;;;;;3.72;1.33;;;;;;;;;;4995872;28;20099;-75
2022/11/04 09:44:20;;;;;;;3.40;1.27;;;;;;;;;;5005352;28;20045;-72
2022/11/04 09:47:07;;;;;;;3.30;1.35;;;;;;;;;;5009645;28;20076;-69
2022/11/04 09:49:56;;;;;;;2.20;1.02;;;;;;;;;;4993698;28;20034;-70
2022/11/04 09:52:43;;;;;;;1.83;1.20;;;;;;;;;;5014958;28;20571;-69
2022/11/04 09:55:38;;;;;;;1.83;1.20;;;;;;;;;;4988056;28;20084;-68
2022/11/04 09:58:23;;;;;;;5.07;1.55;;;;;;;;;;5007798;28;20026;-69
2022/11/04 10:01:20;;;;;;;2.00;1.10;;;;;;;;;;4996942;28;20111;-70
2022/11/04 10:04:18;;;;;;;2.50;1.13;;;;;;;;;;5007720;28;20029;-83
2022/11/04 10:07:03;;;;;;;2.50;1.20;;;;;;;;;;4998989;28;20038;-87
2022/11/04 10:09:58;;;;;;;4.43;1.08;;;;;;;;;;4994144;28;20034;-84
2022/11/04 10:12:49;;;;;;;3.95;1.50;;;;;;;;;;4992470;28;20644;-81
2022/11/04 10:15:54;;;;;;;4.18;1.30;;;;;;;;;;4992998;28;20045;-85
2022/11/04 10:18:58;;;;;;;2.13;1.10;;;;;;;;;;5005518;28;20049;-84
2022/11/04 10:21:46;;;;;;;2.40;1.67;;;;;;;;;;5010631;28;20041;-67
2022/11/04 10:24:32;;;;;;;4.10;1.23;;;;;;;;;;4987165;28;20030;-83
2022/11/04 10:27:21;;;;;;;2.47;1.15;;;;;;;;;;4992755;28;20029;-82
2022/11/04 10:30:14;;;;;;;4.95;1.15;;;;;;;;;;4999337;28;20053;-73
2022/11/04 10:33:18;;;;;;;1.42;1.15;;;;;;;;;;5015815;28;20697;-84
2022/11/04 10:36:08;;;;;;;5.43;1.33;;;;;;;;;;4999786;28;20358;-81
2022/11/04 10:38:54;;;;;;;4.82;1.33;;;;;;;;;;5010460;28;20037;-82
2022/11/04 10:41:40;;;;;;;3.40;1.10;;;;;;;;;;5012834;28;20104;-68
2022/11/04 10:44:25;;;;;;;3.63;1.10;;;;;;;;;;5000595;28;20065;-67
2022/11/04 10:47:30;;;;;;;10.00;1.45;;;;;;;;;;4998260;28;20505;-69
2022/11/04 10:50:36;;;;;;;4.25;1.33;;;;;;;;;;5012413;28;20489;-68
2022/11/04 10:53:26;;;;;;;4.05;1.10;;;;;;;;;;5012960;28;20079;-69
2022/11/04 10:56:11;;;;;;;;;;;;;;;;;;5002363;28;20072;-73
2022/11/04 10:58:59;;;;;;;4.72;1.38;;;;;;;;;;4997329;28;19916;-70
2022/11/04 11:01:50;;;;;;;3.08;1.35;;;;;;;;;;5000089;28;20041;-68
2022/11/04 11:04:36;;;;;;;3.67;1.38;;;;;;;;;;4995229;28;20033;-69
2022/11/04 11:07:34;;;;;;;3.08;1.10;;;;;;;;;;5003718;28;20116;-68
2022/11/04 11:10:31;;;;;;;9.18;1.40;;;;;;;;;;4982802;28;20040;-67
2022/11/04 11:13:26;;;;;;;3.63;1.50;;;;;;;;;;5004813;28;20041;-67
2022/11/04 11:16:16;;;;;;;5.93;1.30;;;;;;;;;;5006629;28;20365;-75
2022/11/04 11:19:12;;;;;;;7.05;1.65;;;;;;;;;;4999676;28;20112;-77
2022/11/04 11:21:57;;;;;;;3.15;1.33;;;;;;;;;;5020546;28;20100;-77
2022/11/04 11:24:43;;;;;;;4.30;1.40;;;;;;;;;;5000699;28;20160;-79
2022/11/04 11:27:28;;;;;;;3.17;1.30;;;;;;;;;;5011518;28;20033;-77
2022/11/04 11:30:20;;;;;;;5.03;1.30;;;;;;;;;;4998171;28;20046;-76
2022/11/04 11:33:26;;;;;;;3.88;0.90;;;;;;;;;;5000635;28;20060;-71
2022/11/04 11:36:14;;;;;;;4.13;1.30;;;;;;;;;;5020476;28;20041;-75
2022/11/04 11:39:04;;;;;;;5.13;1.42;;;;;;;;;;4994747;28;20117;-76
2022/11/04 11:41:49;;;;;;;;;;;;;;;;;;5014228;28;20057;-75
2022/11/04 11:44:37;;;;;;;5.13;1.20;;;;;;;;;;5003537;28;19955;-75
2022/11/04 11:47:27;;;;;;;9.27;1.80;;;;;;;;;;5012619;28;20025;-77
2022/11/04 11:50:12;;;;;;;6.35;1.60;;;;;;;;;;4998686;28;20039;-77
2022/11/04 11:53:13;;;;;;;6.75;1.50;;;;;;;;;;5017201;28;20119;-67
2022/11/04 11:56:08;;;;;;;5.38;1.58;;;;;;;;;;5000494;28;20025;-68
2022/11/04 11:59:06;;;;;;;7.50;1.52;;;;;;;;;;5011861;28;20072;-68
2022/11/04 12:01:57;;;;;;;4.90;1.50;;;;;;;;;;4999192;28;20068;-66
2022/11/04 12:04:43;;;;;;;3.47;1.40;;;;;;;;;;4996641;28;20096;-69
2022/11/04 12:07:48;;;;;;;5.07;1.42;;;;;;;;;;5001470;28;20028;-68
2022/11/04 12:10:42;;;;;;;5.70;1.50;;;;;;;;;;5017352;28;20076;-73
2022/11/04 12:13:53;;;;;;;6.53;2.10;;;;;;;;;;4998984;28;20491;-73
2022/11/04 12:16:47;;;;;;;5.45;1.70;;;;;;;;;;5013741;28;20121;-73
2022/11/04 12:19:44;;;;;;;6.55;1.33;;;;;;;;;;4996183;28;20037;-71
2022/11/04 12:22:39;;;;;;;6.90;1.95;;;;;;;;;;4997611;28;20052;-73
2022/11/04 12:25:32;;;;;;;3.83;1.40;;;;;;;;;;4980285;28;20040;-72
2022/11/04 12:28:25;;;;;;;5.88;1.67;;;;;;;;;;5007991;28;20108;-70
2022/11/04 12:31:10;;;;;;;6.13;2.15;;;;;;;;;;5007305;28;20038;-74
2022/11/04 12:34:01;;;;;;;4.38;1.40;;;;;;;;;;5006341;28;20045;-74
2022/11/04 12:36:50;;;;;;;5.25;1.25;;;;;;;;;;5008065;28;20026;-73
2022/11/04 12:39:54;;;;;;;4.88;1.52;;;;;;;;;;4988569;28;20378;-72
2022/11/04 12:42:45;;;;;;;3.13;2.40;;;;;;;;;;5004554;28;20034;-73
2022/11/04 12:45:36;;;;;;;4.32;1.42;;;;;;;;;;5006029;28;20034;-71
2022/11/04 12:48:35;;;;;;;7.75;1.45;;;;;;;;;;4990604;28;20044;-78
2022/11/04 12:51:20;;;;;;;4.82;1.90;;;;;;;;;;5004509;28;20032;-69
2022/11/04 12:54:20;;;;;;;4.35;2.05;;;;;;;;;;5007826;28;20022;-68
2022/11/04 12:57:25;;;;;;;4.45;1.48;;;;;;;;;;5005283;28;20060;-69
2022/11/04 13:00:15;;;;;;;3.80;1.38;;;;;;;;;;4979447;28;20072;-70
2022/11/04 13:03:01;;;;;;;3.63;1.50;;;;;;;;;;5003137;28;20425;-69
2022/11/04 13:05:52;;;;;;;7.13;1.70;;;;;;;;;;5006550;28;20037;-82
2022/11/04 13:08:46;;;;;;;6.00;2.33;;;;;;;;;;5009137;28;20462;-71
2022/11/04 13:11:48;;;;;;;5.15;1.77;;;;;;;;;;5005678;28;20048;-70
2022/11/04 13:14:46;;;;;;;6.53;2.10;;;;;;;;;;5009616;28;20017;-70
2022/11/04 13:17:37;;;;;;;6.80;1.50;;;;;;;;;;5010058;28;20030;-70
2022/11/04 13:20:38;;;;;;;6.32;1.63;;;;;;;;;;4990650;28;20042;-71
2022/11/04 13:23:26;;;;;;;3.47;1.00;;;;;;;;;;5004725;28;20032;-69
2022/11/04 13:26:13;;;;;;;4.80;1.67;;;;;;;;;;4992506;28;20084;-71
2022/11/04 13:29:09;;;;;;;4.57;1.23;;;;;;;;;;4987698;28;20121;-71
2022/11/04 13:32:15;;;;;;;4.13;1.33;;;;;;;;;;4986310;28;20029;-71
2022/11/04 13:35:09;;;;;;;10.05;1.92;;;;;;;;;;4977811;28;20038;-71
2022/11/04 13:37:58;;;;;;;4.70;1.50;;;;;;;;;;4989972;28;20027;-70
2022/11/04 13:40:52;;;;;;;4.50;1.77;;;;;;;;;;4984126;28;20030;-71
2022/11/04 13:43:40;;;;;;;2.88;1.30;;;;;;;;;;4985508;28;20041;-65
2022/11/04 13:46:30;;;;;;;2.58;1.10;;;;;;;;;;4994559;28;21075;-69
2022/11/04 13:49:19;;;;;;;3.20;1.38;;;;;;;;;;4984382;28;20037;-68
2022/11/04 13:52:07;;;;;;;3.83;1.30;;;;;;;;;;4987247;28;20026;-71
2022/11/04 13:54:54;;;;;;;4.60;1.92;;;;;;;;;;4990618;28;20030;-70
2022/11/04 13:57:57;;;;;;;5.68;1.45;;;;;;;;;;4995002;28;20030;-71
2022/11/04 14:01:02;;;;;;;5.28;1.25;;;;;;;;;;4986176;28;20034;-72
2022/11/04 14:04:01;;;;;;;7.43;2.25;;;;;;;;;;4989926;28;20033;-69
2022/11/04 14:06:57;;;;;;;3.05;1.00;;;;;;;;;;4991103;28;20034;-68
2022/11/04 14:09:42;;;;;;;5.47;1.50;;;;;;;;;;4992456;28;20022;-70
2022/11/04 14:12:29;;;;;;;6.25;2.33;;;;;;;;;;4987385;28;20058;-68
2022/11/04 14:15:15;;;;;;;10.50;2.13;;;;;;;;;;4990457;28;20037;-69
2022/11/04 14:18:01;;;;;;;3.60;1.50;;;;;;;;;;4985666;28;20030;-69
2022/11/04 14:21:05;;;;;;;3.40;1.42;;;;;;;;;;4987427;28;20042;-69
2022/11/04 14:23:51;;;;;;;1.70;1.20;;;;;;;;;;4993344;28;20120;-69
2022/11/04 14:26:39;;;;;;;7.63;1.10;;;;;;;;;;4987464;28;20026;-70
2022/11/04 14:29:25;;;;;;;2.67;1.08;;;;;;;;;;4988008;28;20046;-68
2022/11/04 14:32:11;;;;;;;5.05;1.00;;;;;;;;;;4988768;28;20034;-70
2022/11/04 14:35:02;;;;;;;1.67;1.00;;;;;;;;;;5001211;28;20351;-68
2022/11/04 14:37:50;;;;;;;4.70;1.30;;;;;;;;;;4990895;28;20050;-69
2022/11/04 14:41:05;;;;;;;5.15;2.78;;;;;;;;;;4988274;28;20089;-71
2022/11/04 14:43:52;;;;;;;3.30;1.38;;;;;;;;;;4970344;28;20397;-69
2022/11/04 14:46:42;;;;;;;3.47;1.38;;;;;;;;;;4991103;28;20026;-69
2022/11/04 14:49:31;;;;;;;4.60;1.52;;;;;;;;;;4985189;28;20500;-68
2022/11/04 14:52:31;;;;;;;1.00;0.90;;;;;;;;;;4985333;28;20078;-70
2022/11/04 14:55:18;;;;;;;3.45;1.58;;;;;;;;;;4993874;28;20026;-73
2022/11/04 14:58:20;;;;;;;3.40;0.95;;;;;;;;;;4998484;28;20044;-75
2022/11/04 15:01:10;;;;;;;3.03;1.00;;;;;;;;;;4991869;28;20074;-75
2022/11/04 15:04:02;;;;;;;1.40;0.95;;;;;;;;;;4992070;28;20493;-62
2022/11/04 15:07:00;;;;;;;4.65;1.35;;;;;;;;;;4991105;28;20041;-63
2022/11/04 15:09:49;;;;;;;3.33;1.00;;;;;;;;;;4996077;28;20104;-61
2022/11/04 15:12:53;;;;;;;3.63;1.00;;;;;;;;;;4989903;28;20045;-62
2022/11/04 15:15:43;;;;;;;3.33;0.93;;;;;;;;;;4988797;28;20041;-71
2022/11/04 15:18:29;;;;;;;;;;;;;;;;;;4990011;28;20038;-71
2022/11/04 15:21:14;;;;;;;2.53;0.80;;;;;;;;;;4995253;28;19921;-70
2022/11/04 15:24:00;;;;;;;1.67;0.77;;;;;;;;;;4984319;28;20062;-73
2022/11/04 15:26:52;;;;;;;2.63;0.70;;;;;;;;;;4987204;28;20540;-67
2022/11/04 15:29:37;;;;;;;2.80;0.82;;;;;;;;;;4993189;28;20078;-66
2022/11/04 15:32:23;;;;;;;1.25;0.80;;;;;;;;;;4992729;28;20026;-68
2022/11/04 15:35:11;;;;;;;3.63;0.98;;;;;;;;;;4987894;28;20586;-66
2022/11/04 15:37:58;;;;;;;3.80;0.90;;;;;;;;;;4989614;28;20041;-65
2022/11/04 15:40:44;;;;;;;1.30;0.85;;;;;;;;;;4996263;28;20498;-67
2022/11/04 15:43:29;;;;;;;1.70;1.20;;;;;;;;;;4988337;28;20088;-67
2022/11/04 15:46:16;;;;;;;2.20;1.10;;;;;;;;;;4985473;28;20069;-67
2022/11/04 15:49:03;;;;;;;1.63;0.75;;;;;;;;;;4999406;28;20058;-67
2022/11/04 15:51:49;;;;;;;2.38;0.80;;;;;;;;;;4996155;28;20173;-73
2022/11/04 15:54:39;;;;;;;2.53;1.10;;;;;;;;;;4986423;28;20026;-68
2022/11/04 15:57:24;;;;;;;3.25;0.80;;;;;;;;;;4996314;28;20055;-68
2022/11/04 16:00:16;;;;;;;2.03;0.70;;;;;;;;;;4998544;28;20544;-68
2022/11/04 16:03:02;;;;;;;2.30;1.15;;;;;;;;;;4995615;28;20026;-68
2022/11/04 16:06:01;;;;;;;1.67;0.70;;;;;;;;;;5001787;28;20081;-67
2022/11/04 16:08:59;;;;;;;2.38;0.70;;;;;;;;;;4991757;28;20053;-71
2022/11/04 16:12:02;;;;;;;2.70;0.90;;;;;;;;;;4996695;28;20121;-72
2022/11/04 16:14:49;;;;;;;2.65;1.30;;;;;;;;;;4989078;28;20166;-72
2022/11/04 16:17:42;;;;;;;3.63;1.77;;;;;;;;;;4994410;28;20026;-72
2022/11/04 16:20:29;;;;;;;4.18;1.90;;;;;;;;;;4990102;28;20121;-72
2022/11/04 16:23:16;;;;;;;1.90;1.23;;;;;;;;;;4997358;28;20026;-72
2022/11/04 16:26:04;;;;;;;2.85;1.13;;;;;;;;;;4996484;28;20409;-71
2022/11/04 16:28:52;;;;;;;3.20;1.10;;;;;;;;;;5000612;28;20046;-70
2022/11/04 16:31:37;;;;;;;1.42;1.00;;;;;;;;;;4979953;28;20026;-69
2022/11/04 16:34:22;;;;;;;1.23;0.85;;;;;;;;;;4989832;28;20541;-68
2022/11/04 16:37:07;;;;;;;2.25;0.85;;;;;;;;;;4990233;28;20030;-67
2022/11/04 16:39:53;;;;;;;2.35;1.40;;;;;;;;;;4992755;28;20065;-68
2022/11/04 16:42:38;;;;;;;1.23;0.90;;;;;;;;;;4996678;28;20037;-68
2022/11/04 16:45:31;;;;;;;4.32;1.13;;;;;;;;;;4989731;28;20505;-67
2022/11/04 16:48:17;;;;;;;1.40;1.02;;;;;;;;;;4993887;28;20062;-80
2022/11/04 16:51:03;;;;;;;3.50;1.40;;;;;;;;;;4999097;28;20033;-71
2022/11/04 16:53:49;;;;;;;3.00;1.48;;;;;;;;;;4987987;28;20038;-71
2022/11/04 16:56:34;;;;;;;2.72;1.30;;;;;;;;;;4992812;28;20034;-72
2022/11/04 16:59:20;;;;;;;3.85;1.60;;;;;;;;;;5000582;28;20034;-72
2022/11/04 17:02:14;;;;;;;3.65;1.60;;;;;;;;;;5002867;28;20046;-71
2022/11/04 17:04:59;;;;;;;2.90;1.50;;;;;;;;;;4993029;28;20033;-80
2022/11/04 17:07:45;;;;;;;3.85;1.80;;;;;;;;;;5003740;28;20129;-66
2022/11/04 17:10:32;;;;;;;1.85;1.17;;;;;;;;;;4989027;28;20469;-66
2022/11/04 17:13:18;;;;;;;4.15;1.83;;;;;;;;;;4994623;28;20140;-67
2022/11/04 17:16:04;;;;;;;7.10;1.38;;;;;;;;;;4987171;28;20038;-66
2022/11/04 17:18:49;;;;;;;3.65;1.77;;;;;;;;;;4995483;28;20026;-68
2022/11/04 17:21:34;;;;;;;2.72;1.67;;;;;;;;;;4989941;28;20034;-66
2022/11/04 17:24:20;;;;;;;1.63;1.30;;;;;;;;;;5002374;28;20034;-69
2022/11/04 17:27:05;;;;;;;3.05;1.95;;;;;;;;;;4986878;28;20125;-75